sensor_id;sensor_type;location;lat;lon;timestamp;P1;durP1;ratioP1;P2;durP2;ratioP2
11646;SDS011;5880;52.342;9.662;2022-07-06T00:01:43;0.80;;;0.73;;
11646;SDS011;5880;52.342;9.662;2022-07-06T00:04:10;0.77;;;0.70;;
11646;SDS011;5880;52.342;9.662;2022-07-06T00:06:35;2.50;;;0.90;;
11646;SDS011;5880;52.342;9.662;2022-07-06T00:09:02;0.83;;;0.80;;
11646;SDS011;5880;52.342;9.662;2022-07-06T00:11:29;0.73;;;0.73;;
11646;SDS011;5880;52.342;9.662;2022-07-06T00:13:55;0.70;;;0.70;;
11646;SDS011;5880;52.342;9.662;2022-07-06T00:16:24;0.83;;;0.70;;
11646;SDS011;5880;52.342;9.662;2022-07-06T00:18:50;1.00;;;0.80;;
11646;SDS011;5880;52.342;9.662;2022-07-06T00:21:16;0.80;;;0.80;;
11646;SDS011;5880;52.342;9.662;2022-07-06T00:23:42;2.20;;;1.00;;
11646;SDS011;5880;52.342;9.662;2022-07-06T00:26:08;1.23;;;0.80;;
11646;SDS011;5880;52.342;9.662;2022-07-06T00:28:34;3.27;;;0.90;;
11646;SDS011;5880;52.342;9.662;2022-07-06T00:31:00;0.97;;;0.80;;
11646;SDS011;5880;52.342;9.662;2022-07-06T00:33:26;1.47;;;0.80;;
11646;SDS011;5880;52.342;9.662;2022-07-06T00:35:51;1.27;;;0.90;;
11646;SDS011;5880;52.342;9.662;2022-07-06T00:38:17;1.43;;;0.90;;
11646;SDS011;5880;52.342;9.662;2022-07-06T00:40:43;0.93;;;0.70;;
11646;SDS011;5880;52.342;9.662;2022-07-06T00:43:09;1.73;;;0.80;;
11646;SDS011;5880;52.342;9.662;2022-07-06T00:45:34;1.60;;;0.80;;
11646;SDS011;5880;52.342;9.662;2022-07-06T00:48:00;1.10;;;0.90;;
11646;SDS011;5880;52.342;9.662;2022-07-06T00:50:26;1.33;;;0.83;;
11646;SDS011;5880;52.342;9.662;2022-07-06T00:52:56;1.53;;;1.00;;
11646;SDS011;5880;52.342;9.662;2022-07-06T00:55:30;0.70;;;0.70;;
11646;SDS011;5880;52.342;9.662;2022-07-06T00:58:01;1.57;;;0.80;;
11646;SDS011;5880;52.342;9.662;2022-07-06T01:00:28;1.27;;;1.03;;
11646;SDS011;5880;52.342;9.662;2022-07-06T01:02:54;1.10;;;1.00;;
11646;SDS011;5880;52.342;9.662;2022-07-06T01:05:21;1.30;;;0.80;;
11646;SDS011;5880;52.342;9.662;2022-07-06T01:07:48;1.10;;;0.70;;
11646;SDS011;5880;52.342;9.662;2022-07-06T01:10:17;0.80;;;0.80;;
11646;SDS011;5880;52.342;9.662;2022-07-06T01:12:46;1.10;;;1.00;;
11646;SDS011;5880;52.342;9.662;2022-07-06T01:15:21;1.30;;;1.10;;
11646;SDS011;5880;52.342;9.662;2022-07-06T01:17:49;3.17;;;1.30;;
11646;SDS011;5880;52.342;9.662;2022-07-06T01:20:17;1.20;;;0.90;;
11646;SDS011;5880;52.342;9.662;2022-07-06T01:22:48;1.10;;;1.00;;
11646;SDS011;5880;52.342;9.662;2022-07-06T01:25:17;1.13;;;0.90;;
11646;SDS011;5880;52.342;9.662;2022-07-06T01:27:44;1.00;;;1.00;;
11646;SDS011;5880;52.342;9.662;2022-07-06T01:30:12;0.70;;;0.70;;
11646;SDS011;5880;52.342;9.662;2022-07-06T01:32:41;1.73;;;1.17;;
11646;SDS011;5880;52.342;9.662;2022-07-06T01:35:10;1.90;;;1.10;;
11646;SDS011;5880;52.342;9.662;2022-07-06T01:37:38;1.73;;;0.97;;
11646;SDS011;5880;52.342;9.662;2022-07-06T01:40:05;2.00;;;1.00;;
11646;SDS011;5880;52.342;9.662;2022-07-06T01:42:34;1.00;;;1.00;;
11646;SDS011;5880;52.342;9.662;2022-07-06T01:45:00;1.50;;;1.20;;
11646;SDS011;5880;52.342;9.662;2022-07-06T01:47:28;1.50;;;1.00;;
11646;SDS011;5880;52.342;9.662;2022-07-06T01:49:55;1.10;;;1.00;;
11646;SDS011;5880;52.342;9.662;2022-07-06T01:52:24;0.80;;;0.80;;
11646;SDS011;5880;52.342;9.662;2022-07-06T01:54:50;0.97;;;0.83;;
11646;SDS011;5880;52.342;9.662;2022-07-06T01:57:16;2.17;;;1.00;;
11646;SDS011;5880;52.342;9.662;2022-07-06T01:59:42;1.00;;;0.90;;
11646;SDS011;5880;52.342;9.662;2022-07-06T02:02:07;1.00;;;0.80;;
11646;SDS011;5880;52.342;9.662;2022-07-06T02:04:33;2.07;;;1.10;;
11646;SDS011;5880;52.342;9.662;2022-07-06T02:06:59;1.57;;;0.87;;
11646;SDS011;5880;52.342;9.662;2022-07-06T02:09:24;1.20;;;0.90;;
11646;SDS011;5880;52.342;9.662;2022-07-06T02:11:50;2.37;;;0.83;;
11646;SDS011;5880;52.342;9.662;2022-07-06T02:14:15;0.90;;;0.70;;
11646;SDS011;5880;52.342;9.662;2022-07-06T02:16:41;0.97;;;0.90;;
11646;SDS011;5880;52.342;9.662;2022-07-06T02:19:07;3.53;;;1.10;;
11646;SDS011;5880;52.342;9.662;2022-07-06T02:21:32;1.10;;;0.90;;
11646;SDS011;5880;52.342;9.662;2022-07-06T02:23:58;1.80;;;0.83;;
11646;SDS011;5880;52.342;9.662;2022-07-06T02:26:24;1.10;;;1.00;;
11646;SDS011;5880;52.342;9.662;2022-07-06T02:28:49;0.80;;;0.60;;
11646;SDS011;5880;52.342;9.662;2022-07-06T02:31:15;1.17;;;0.77;;
11646;SDS011;5880;52.342;9.662;2022-07-06T02:33:41;0.83;;;0.70;;
11646;SDS011;5880;52.342;9.662;2022-07-06T02:36:07;2.47;;;1.10;;
11646;SDS011;5880;52.342;9.662;2022-07-06T02:38:32;1.30;;;0.83;;
11646;SDS011;5880;52.342;9.662;2022-07-06T02:40:58;1.00;;;0.90;;
11646;SDS011;5880;52.342;9.662;2022-07-06T02:43:24;2.10;;;1.00;;
11646;SDS011;5880;52.342;9.662;2022-07-06T02:45:50;1.47;;;0.63;;
11646;SDS011;5880;52.342;9.662;2022-07-06T02:48:16;1.27;;;0.70;;
11646;SDS011;5880;52.342;9.662;2022-07-06T02:50:42;0.80;;;0.80;;
11646;SDS011;5880;52.342;9.662;2022-07-06T02:53:08;1.13;;;0.70;;
11646;SDS011;5880;52.342;9.662;2022-07-06T02:55:34;1.13;;;0.70;;
11646;SDS011;5880;52.342;9.662;2022-07-06T02:57:59;2.60;;;1.00;;
11646;SDS011;5880;52.342;9.662;2022-07-06T03:00:25;2.17;;;0.80;;
11646;SDS011;5880;52.342;9.662;2022-07-06T03:02:51;1.33;;;0.77;;
11646;SDS011;5880;52.342;9.662;2022-07-06T03:05:16;1.73;;;0.80;;
11646;SDS011;5880;52.342;9.662;2022-07-06T03:07:42;1.40;;;0.90;;
11646;SDS011;5880;52.342;9.662;2022-07-06T03:10:07;1.10;;;0.77;;
11646;SDS011;5880;52.342;9.662;2022-07-06T03:12:33;1.53;;;1.03;;
11646;SDS011;5880;52.342;9.662;2022-07-06T03:14:59;2.97;;;1.00;;
11646;SDS011;5880;52.342;9.662;2022-07-06T03:17:25;1.10;;;0.90;;
11646;SDS011;5880;52.342;9.662;2022-07-06T03:19:50;2.00;;;0.83;;
11646;SDS011;5880;52.342;9.662;2022-07-06T03:22:17;1.43;;;0.90;;
11646;SDS011;5880;52.342;9.662;2022-07-06T03:24:43;0.77;;;0.77;;
11646;SDS011;5880;52.342;9.662;2022-07-06T03:27:08;2.53;;;1.10;;
11646;SDS011;5880;52.342;9.662;2022-07-06T03:29:34;2.07;;;1.07;;
11646;SDS011;5880;52.342;9.662;2022-07-06T03:31:59;2.30;;;0.90;;
11646;SDS011;5880;52.342;9.662;2022-07-06T03:34:25;1.20;;;0.90;;
11646;SDS011;5880;52.342;9.662;2022-07-06T03:36:51;2.07;;;1.30;;
11646;SDS011;5880;52.342;9.662;2022-07-06T03:39:17;1.20;;;0.90;;
11646;SDS011;5880;52.342;9.662;2022-07-06T03:41:42;1.33;;;0.90;;
11646;SDS011;5880;52.342;9.662;2022-07-06T03:44:08;1.10;;;1.00;;
11646;SDS011;5880;52.342;9.662;2022-07-06T03:46:34;1.40;;;1.00;;
11646;SDS011;5880;52.342;9.662;2022-07-06T03:48:59;1.13;;;0.97;;
11646;SDS011;5880;52.342;9.662;2022-07-06T03:51:25;2.60;;;0.80;;
11646;SDS011;5880;52.342;9.662;2022-07-06T03:53:50;1.63;;;0.90;;
11646;SDS011;5880;52.342;9.662;2022-07-06T03:56:16;1.17;;;0.80;;
11646;SDS011;5880;52.342;9.662;2022-07-06T03:58:55;0.83;;;0.83;;
11646;SDS011;5880;52.342;9.662;2022-07-06T04:01:22;1.30;;;1.00;;
11646;SDS011;5880;52.342;9.662;2022-07-06T04:03:48;2.27;;;0.83;;
11646;SDS011;5880;52.342;9.662;2022-07-06T04:06:14;2.13;;;0.80;;
11646;SDS011;5880;52.342;9.662;2022-07-06T04:08:40;1.10;;;0.90;;
11646;SDS011;5880;52.342;9.662;2022-07-06T04:11:05;1.17;;;0.90;;
11646;SDS011;5880;52.342;9.662;2022-07-06T04:13:31;1.43;;;0.90;;
11646;SDS011;5880;52.342;9.662;2022-07-06T04:15:57;2.90;;;1.10;;
11646;SDS011;5880;52.342;9.662;2022-07-06T04:18:23;1.60;;;1.00;;
11646;SDS011;5880;52.342;9.662;2022-07-06T04:20:49;1.50;;;0.80;;
11646;SDS011;5880;52.342;9.662;2022-07-06T04:23:15;1.53;;;1.00;;
11646;SDS011;5880;52.342;9.662;2022-07-06T04:25:41;2.03;;;0.90;;
11646;SDS011;5880;52.342;9.662;2022-07-06T04:28:06;1.33;;;0.97;;
11646;SDS011;5880;52.342;9.662;2022-07-06T04:30:32;1.53;;;1.00;;
11646;SDS011;5880;52.342;9.662;2022-07-06T04:32:58;2.77;;;1.10;;
11646;SDS011;5880;52.342;9.662;2022-07-06T04:35:23;2.80;;;1.00;;
11646;SDS011;5880;52.342;9.662;2022-07-06T04:37:49;1.53;;;0.90;;
11646;SDS011;5880;52.342;9.662;2022-07-06T04:40:15;3.27;;;1.10;;
11646;SDS011;5880;52.342;9.662;2022-07-06T04:42:42;2.40;;;1.00;;
11646;SDS011;5880;52.342;9.662;2022-07-06T04:45:08;2.50;;;1.00;;
11646;SDS011;5880;52.342;9.662;2022-07-06T04:47:35;2.00;;;1.00;;
11646;SDS011;5880;52.342;9.662;2022-07-06T04:50:00;2.13;;;1.30;;
11646;SDS011;5880;52.342;9.662;2022-07-06T04:52:26;2.90;;;0.80;;
11646;SDS011;5880;52.342;9.662;2022-07-06T04:54:53;1.07;;;0.80;;
11646;SDS011;5880;52.342;9.662;2022-07-06T04:57:19;1.63;;;0.90;;
11646;SDS011;5880;52.342;9.662;2022-07-06T04:59:45;2.33;;;1.07;;
11646;SDS011;5880;52.342;9.662;2022-07-06T05:02:11;2.57;;;1.10;;
11646;SDS011;5880;52.342;9.662;2022-07-06T05:04:37;2.53;;;1.00;;
11646;SDS011;5880;52.342;9.662;2022-07-06T05:07:03;1.43;;;0.90;;
11646;SDS011;5880;52.342;9.662;2022-07-06T05:09:29;1.73;;;1.20;;
11646;SDS011;5880;52.342;9.662;2022-07-06T05:11:54;1.57;;;0.87;;
11646;SDS011;5880;52.342;9.662;2022-07-06T05:14:20;1.70;;;0.93;;
11646;SDS011;5880;52.342;9.662;2022-07-06T05:16:46;1.70;;;1.00;;
11646;SDS011;5880;52.342;9.662;2022-07-06T05:19:11;1.77;;;1.10;;
11646;SDS011;5880;52.342;9.662;2022-07-06T05:21:37;2.00;;;1.13;;
11646;SDS011;5880;52.342;9.662;2022-07-06T05:24:03;1.40;;;0.87;;
11646;SDS011;5880;52.342;9.662;2022-07-06T05:26:29;1.53;;;0.80;;
11646;SDS011;5880;52.342;9.662;2022-07-06T05:28:55;2.10;;;1.00;;
11646;SDS011;5880;52.342;9.662;2022-07-06T05:31:20;1.97;;;0.90;;
11646;SDS011;5880;52.342;9.662;2022-07-06T05:33:46;2.23;;;0.90;;
11646;SDS011;5880;52.342;9.662;2022-07-06T05:36:12;2.70;;;1.20;;
11646;SDS011;5880;52.342;9.662;2022-07-06T05:38:37;2.27;;;1.07;;
11646;SDS011;5880;52.342;9.662;2022-07-06T05:41:03;2.90;;;1.00;;
11646;SDS011;5880;52.342;9.662;2022-07-06T05:43:29;1.20;;;1.10;;
11646;SDS011;5880;52.342;9.662;2022-07-06T05:45:55;2.13;;;1.00;;
11646;SDS011;5880;52.342;9.662;2022-07-06T05:48:20;1.47;;;0.97;;
11646;SDS011;5880;52.342;9.662;2022-07-06T05:51:04;1.07;;;0.90;;
11646;SDS011;5880;52.342;9.662;2022-07-06T05:53:30;1.57;;;1.10;;
11646;SDS011;5880;52.342;9.662;2022-07-06T05:55:56;2.70;;;1.10;;
11646;SDS011;5880;52.342;9.662;2022-07-06T05:58:22;1.13;;;1.00;;
11646;SDS011;5880;52.342;9.662;2022-07-06T06:00:50;2.53;;;1.10;;
11646;SDS011;5880;52.342;9.662;2022-07-06T06:03:16;2.40;;;1.10;;
11646;SDS011;5880;52.342;9.662;2022-07-06T06:05:42;1.97;;;1.33;;
11646;SDS011;5880;52.342;9.662;2022-07-06T06:08:08;1.50;;;0.90;;
11646;SDS011;5880;52.342;9.662;2022-07-06T06:10:33;1.80;;;1.00;;
11646;SDS011;5880;52.342;9.662;2022-07-06T06:12:59;1.63;;;1.00;;
11646;SDS011;5880;52.342;9.662;2022-07-06T06:15:25;1.47;;;1.00;;
11646;SDS011;5880;52.342;9.662;2022-07-06T06:17:50;1.20;;;1.10;;
11646;SDS011;5880;52.342;9.662;2022-07-06T06:20:16;2.23;;;1.10;;
11646;SDS011;5880;52.342;9.662;2022-07-06T06:22:52;2.03;;;1.10;;
11646;SDS011;5880;52.342;9.662;2022-07-06T06:25:30;1.47;;;1.00;;
11646;SDS011;5880;52.342;9.662;2022-07-06T06:27:57;1.57;;;1.00;;
11646;SDS011;5880;52.342;9.662;2022-07-06T06:30:23;2.00;;;1.03;;
11646;SDS011;5880;52.342;9.662;2022-07-06T06:32:50;2.40;;;1.00;;
11646;SDS011;5880;52.342;9.662;2022-07-06T06:35:16;1.80;;;1.00;;
11646;SDS011;5880;52.342;9.662;2022-07-06T06:37:42;1.57;;;0.90;;
11646;SDS011;5880;52.342;9.662;2022-07-06T06:40:08;1.97;;;0.80;;
11646;SDS011;5880;52.342;9.662;2022-07-06T06:42:38;1.70;;;0.93;;
11646;SDS011;5880;52.342;9.662;2022-07-06T06:45:05;1.93;;;1.00;;
11646;SDS011;5880;52.342;9.662;2022-07-06T06:47:31;2.13;;;1.00;;
11646;SDS011;5880;52.342;9.662;2022-07-06T06:49:57;1.33;;;0.93;;
11646;SDS011;5880;52.342;9.662;2022-07-06T06:52:23;2.77;;;1.00;;
11646;SDS011;5880;52.342;9.662;2022-07-06T06:54:48;1.13;;;0.97;;
11646;SDS011;5880;52.342;9.662;2022-07-06T06:57:14;1.00;;;0.90;;
11646;SDS011;5880;52.342;9.662;2022-07-06T06:59:40;3.03;;;1.10;;
11646;SDS011;5880;52.342;9.662;2022-07-06T07:02:05;1.53;;;0.93;;
11646;SDS011;5880;52.342;9.662;2022-07-06T07:04:31;1.40;;;1.10;;
11646;SDS011;5880;52.342;9.662;2022-07-06T07:06:58;1.80;;;1.17;;
11646;SDS011;5880;52.342;9.662;2022-07-06T07:09:23;2.27;;;1.00;;
11646;SDS011;5880;52.342;9.662;2022-07-06T07:11:50;1.10;;;0.90;;
11646;SDS011;5880;52.342;9.662;2022-07-06T07:14:16;1.53;;;0.90;;
11646;SDS011;5880;52.342;9.662;2022-07-06T07:16:42;2.03;;;1.07;;
11646;SDS011;5880;52.342;9.662;2022-07-06T07:19:07;3.87;;;0.97;;
11646;SDS011;5880;52.342;9.662;2022-07-06T07:21:33;2.33;;;0.90;;
11646;SDS011;5880;52.342;9.662;2022-07-06T07:23:58;1.73;;;1.00;;
11646;SDS011;5880;52.342;9.662;2022-07-06T07:26:24;0.70;;;0.70;;
11646;SDS011;5880;52.342;9.662;2022-07-06T07:28:50;2.35;;;1.00;;
11646;SDS011;5880;52.342;9.662;2022-07-06T07:31:15;1.03;;;0.83;;
11646;SDS011;5880;52.342;9.662;2022-07-06T07:33:41;1.40;;;0.73;;
11646;SDS011;5880;52.342;9.662;2022-07-06T07:36:07;1.27;;;0.80;;
11646;SDS011;5880;52.342;9.662;2022-07-06T07:38:33;2.50;;;0.93;;
11646;SDS011;5880;52.342;9.662;2022-07-06T07:40:58;2.10;;;0.93;;
11646;SDS011;5880;52.342;9.662;2022-07-06T07:43:24;1.17;;;0.70;;
11646;SDS011;5880;52.342;9.662;2022-07-06T07:45:49;1.70;;;1.00;;
11646;SDS011;5880;52.342;9.662;2022-07-06T07:48:15;2.03;;;1.00;;
11646;SDS011;5880;52.342;9.662;2022-07-06T07:50:41;1.65;;;0.80;;
11646;SDS011;5880;52.342;9.662;2022-07-06T07:53:07;1.85;;;0.90;;
11646;SDS011;5880;52.342;9.662;2022-07-06T07:55:33;2.30;;;0.85;;
11646;SDS011;5880;52.342;9.662;2022-07-06T07:57:59;1.23;;;0.75;;
11646;SDS011;5880;52.342;9.662;2022-07-06T08:00:25;1.30;;;0.85;;
11646;SDS011;5880;52.342;9.662;2022-07-06T08:02:51;2.05;;;0.80;;
11646;SDS011;5880;52.342;9.662;2022-07-06T08:05:17;3.00;;;0.77;;
11646;SDS011;5880;52.342;9.662;2022-07-06T08:07:44;2.83;;;1.00;;
11646;SDS011;5880;52.342;9.662;2022-07-06T08:10:10;0.90;;;0.70;;
11646;SDS011;5880;52.342;9.662;2022-07-06T08:12:36;1.17;;;0.80;;
11646;SDS011;5880;52.342;9.662;2022-07-06T08:15:03;1.33;;;1.00;;
11646;SDS011;5880;52.342;9.662;2022-07-06T08:17:31;3.08;;;1.00;;
11646;SDS011;5880;52.342;9.662;2022-07-06T08:19:57;2.17;;;0.82;;
11646;SDS011;5880;52.342;9.662;2022-07-06T08:22:22;2.45;;;0.85;;
11646;SDS011;5880;52.342;9.662;2022-07-06T08:24:48;1.75;;;0.70;;
11646;SDS011;5880;52.342;9.662;2022-07-06T08:27:14;1.40;;;0.63;;
11646;SDS011;5880;52.342;9.662;2022-07-06T08:29:40;0.82;;;0.63;;
11646;SDS011;5880;52.342;9.662;2022-07-06T08:32:06;1.20;;;0.70;;
11646;SDS011;5880;52.342;9.662;2022-07-06T08:34:31;3.53;;;0.82;;
11646;SDS011;5880;52.342;9.662;2022-07-06T08:36:57;1.10;;;0.52;;
11646;SDS011;5880;52.342;9.662;2022-07-06T08:39:23;2.65;;;0.70;;
11646;SDS011;5880;52.342;9.662;2022-07-06T08:41:48;1.63;;;0.68;;
11646;SDS011;5880;52.342;9.662;2022-07-06T08:44:15;2.35;;;0.77;;
11646;SDS011;5880;52.342;9.662;2022-07-06T08:46:42;1.20;;;0.70;;
11646;SDS011;5880;52.342;9.662;2022-07-06T08:49:09;2.28;;;0.63;;
11646;SDS011;5880;52.342;9.662;2022-07-06T08:51:42;1.45;;;0.70;;
11646;SDS011;5880;52.342;9.662;2022-07-06T08:54:08;0.88;;;0.57;;
11646;SDS011;5880;52.342;9.662;2022-07-06T08:56:35;1.38;;;0.60;;
11646;SDS011;5880;52.342;9.662;2022-07-06T08:59:01;0.38;;;0.38;;
11646;SDS011;5880;52.342;9.662;2022-07-06T09:01:27;0.73;;;0.68;;
11646;SDS011;5880;52.342;9.662;2022-07-06T09:03:54;0.57;;;0.47;;
11646;SDS011;5880;52.342;9.662;2022-07-06T09:06:23;1.35;;;0.70;;
11646;SDS011;5880;52.342;9.662;2022-07-06T09:08:50;1.20;;;0.50;;
11646;SDS011;5880;52.342;9.662;2022-07-06T09:11:22;1.20;;;0.57;;
11646;SDS011;5880;52.342;9.662;2022-07-06T09:13:50;1.10;;;0.52;;
11646;SDS011;5880;52.342;9.662;2022-07-06T09:16:16;0.60;;;0.60;;
11646;SDS011;5880;52.342;9.662;2022-07-06T09:18:46;0.65;;;0.60;;
11646;SDS011;5880;52.342;9.662;2022-07-06T09:21:19;2.72;;;0.60;;
11646;SDS011;5880;52.342;9.662;2022-07-06T09:23:55;0.65;;;0.50;;
11646;SDS011;5880;52.342;9.662;2022-07-06T09:26:23;0.80;;;0.63;;
11646;SDS011;5880;52.342;9.662;2022-07-06T09:28:49;1.67;;;0.50;;
11646;SDS011;5880;52.342;9.662;2022-07-06T09:31:15;1.58;;;0.73;;
11646;SDS011;5880;52.342;9.662;2022-07-06T09:33:54;1.08;;;0.60;;
11646;SDS011;5880;52.342;9.662;2022-07-06T09:37:03;0.35;;;0.30;;
11646;SDS011;5880;52.342;9.662;2022-07-06T09:41:52;1.02;;;0.60;;
11646;SDS011;5880;52.342;9.662;2022-07-06T09:44:27;3.53;;;0.68;;
11646;SDS011;5880;52.342;9.662;2022-07-06T09:47:00;1.15;;;0.65;;
11646;SDS011;5880;52.342;9.662;2022-07-06T09:49:33;2.90;;;0.50;;
11646;SDS011;5880;52.342;9.662;2022-07-06T09:52:01;0.47;;;0.47;;
11646;SDS011;5880;52.342;9.662;2022-07-06T09:54:30;1.40;;;0.50;;
11646;SDS011;5880;52.342;9.662;2022-07-06T09:56:58;0.57;;;0.50;;
11646;SDS011;5880;52.342;9.662;2022-07-06T09:59:25;0.77;;;0.52;;
11646;SDS011;5880;52.342;9.662;2022-07-06T10:01:54;0.80;;;0.50;;
11646;SDS011;5880;52.342;9.662;2022-07-06T10:04:25;1.55;;;0.40;;
11646;SDS011;5880;52.342;9.662;2022-07-06T10:06:54;1.65;;;0.30;;
11646;SDS011;5880;52.342;9.662;2022-07-06T10:09:21;1.02;;;0.40;;
11646;SDS011;5880;52.342;9.662;2022-07-06T10:11:54;1.15;;;0.70;;
11646;SDS011;5880;52.342;9.662;2022-07-06T10:14:28;0.65;;;0.57;;
11646;SDS011;5880;52.342;9.662;2022-07-06T10:16:58;0.63;;;0.57;;
11646;SDS011;5880;52.342;9.662;2022-07-06T10:19:30;0.77;;;0.40;;
11646;SDS011;5880;52.342;9.662;2022-07-06T10:22:01;0.40;;;0.40;;
11646;SDS011;5880;52.342;9.662;2022-07-06T10:24:28;0.98;;;0.50;;
11646;SDS011;5880;52.342;9.662;2022-07-06T10:26:55;1.77;;;0.57;;
11646;SDS011;5880;52.342;9.662;2022-07-06T10:29:21;1.35;;;0.52;;
11646;SDS011;5880;52.342;9.662;2022-07-06T10:31:49;0.40;;;0.38;;
11646;SDS011;5880;52.342;9.662;2022-07-06T10:34:17;0.68;;;0.43;;
11646;SDS011;5880;52.342;9.662;2022-07-06T10:36:47;1.05;;;0.52;;
11646;SDS011;5880;52.342;9.662;2022-07-06T10:39:16;2.30;;;0.40;;
11646;SDS011;5880;52.342;9.662;2022-07-06T10:45:08;0.55;;;0.40;;
11646;SDS011;5880;52.342;9.662;2022-07-06T10:47:36;0.70;;;0.50;;
11646;SDS011;5880;52.342;9.662;2022-07-06T10:50:03;0.45;;;0.40;;
11646;SDS011;5880;52.342;9.662;2022-07-06T10:58:02;0.40;;;0.40;;
11646;SDS011;5880;52.342;9.662;2022-07-06T11:06:07;0.90;;;0.45;;
11646;SDS011;5880;52.342;9.662;2022-07-06T11:14:11;0.98;;;0.65;;
11646;SDS011;5880;52.342;9.662;2022-07-06T11:19:26;1.92;;;0.60;;
11646;SDS011;5880;52.342;9.662;2022-07-06T11:21:54;1.67;;;0.50;;
11646;SDS011;5880;52.342;9.662;2022-07-06T11:24:26;1.20;;;0.50;;
11646;SDS011;5880;52.342;9.662;2022-07-06T11:26:54;0.98;;;0.30;;
11646;SDS011;5880;52.342;9.662;2022-07-06T11:29:23;1.35;;;0.50;;
11646;SDS011;5880;52.342;9.662;2022-07-06T11:31:52;1.17;;;0.40;;
11646;SDS011;5880;52.342;9.662;2022-07-06T11:34:26;0.45;;;0.40;;
11646;SDS011;5880;52.342;9.662;2022-07-06T11:36:55;0.85;;;0.47;;
11646;SDS011;5880;52.342;9.662;2022-07-06T11:39:31;0.40;;;0.40;;
11646;SDS011;5880;52.342;9.662;2022-07-06T11:41:59;2.05;;;0.50;;
11646;SDS011;5880;52.342;9.662;2022-07-06T11:44:26;0.75;;;0.28;;
11646;SDS011;5880;52.342;9.662;2022-07-06T11:46:52;0.25;;;0.25;;
11646;SDS011;5880;52.342;9.662;2022-07-06T11:49:25;0.30;;;0.30;;
11646;SDS011;5880;52.342;9.662;2022-07-06T11:51:50;0.75;;;0.30;;
11646;SDS011;5880;52.342;9.662;2022-07-06T11:54:17;1.30;;;0.52;;
11646;SDS011;5880;52.342;9.662;2022-07-06T11:56:45;0.57;;;0.57;;
11646;SDS011;5880;52.342;9.662;2022-07-06T11:59:13;0.30;;;0.30;;
11646;SDS011;5880;52.342;9.662;2022-07-06T12:01:40;1.88;;;0.50;;
11646;SDS011;5880;52.342;9.662;2022-07-06T12:04:09;0.65;;;0.43;;
11646;SDS011;5880;52.342;9.662;2022-07-06T12:06:36;3.10;;;0.35;;
11646;SDS011;5880;52.342;9.662;2022-07-06T12:09:02;0.80;;;0.47;;
11646;SDS011;5880;52.342;9.662;2022-07-06T12:11:33;0.43;;;0.38;;
11646;SDS011;5880;52.342;9.662;2022-07-06T12:14:02;1.38;;;0.47;;
11646;SDS011;5880;52.342;9.662;2022-07-06T12:16:42;2.03;;;0.60;;
11646;SDS011;5880;52.342;9.662;2022-07-06T12:19:08;0.93;;;0.50;;
11646;SDS011;5880;52.342;9.662;2022-07-06T12:21:36;1.88;;;0.40;;
11646;SDS011;5880;52.342;9.662;2022-07-06T12:24:22;0.70;;;0.32;;
11646;SDS011;5880;52.342;9.662;2022-07-06T12:26:52;0.90;;;0.50;;
11646;SDS011;5880;52.342;9.662;2022-07-06T12:29:20;0.93;;;0.50;;
11646;SDS011;5880;52.342;9.662;2022-07-06T12:34:16;0.65;;;0.38;;
11646;SDS011;5880;52.342;9.662;2022-07-06T12:36:57;1.05;;;0.50;;
11646;SDS011;5880;52.342;9.662;2022-07-06T12:39:25;0.38;;;0.30;;
11646;SDS011;5880;52.342;9.662;2022-07-06T12:42:03;1.40;;;0.50;;
11646;SDS011;5880;52.342;9.662;2022-07-06T12:44:29;0.20;;;0.20;;
11646;SDS011;5880;52.342;9.662;2022-07-06T12:47:03;0.70;;;0.52;;
11646;SDS011;5880;52.342;9.662;2022-07-06T12:49:35;0.30;;;0.30;;
11646;SDS011;5880;52.342;9.662;2022-07-06T12:54:36;1.27;;;0.38;;
11646;SDS011;5880;52.342;9.662;2022-07-06T12:59:47;1.13;;;0.47;;
11646;SDS011;5880;52.342;9.662;2022-07-06T13:02:22;1.02;;;0.30;;
11646;SDS011;5880;52.342;9.662;2022-07-06T13:05:03;0.52;;;0.30;;
11646;SDS011;5880;52.342;9.662;2022-07-06T13:07:35;0.52;;;0.52;;
11646;SDS011;5880;52.342;9.662;2022-07-06T13:10:04;0.75;;;0.60;;
11646;SDS011;5880;52.342;9.662;2022-07-06T13:12:32;0.88;;;0.60;;
11646;SDS011;5880;52.342;9.662;2022-07-06T13:15:00;0.77;;;0.40;;
11646;SDS011;5880;52.342;9.662;2022-07-06T13:17:26;0.75;;;0.55;;
11646;SDS011;5880;52.342;9.662;2022-07-06T13:19:52;1.70;;;0.70;;
11646;SDS011;5880;52.342;9.662;2022-07-06T13:22:18;1.55;;;0.60;;
11646;SDS011;5880;52.342;9.662;2022-07-06T13:24:44;0.52;;;0.35;;
11646;SDS011;5880;52.342;9.662;2022-07-06T13:27:10;0.40;;;0.40;;
11646;SDS011;5880;52.342;9.662;2022-07-06T13:29:36;0.40;;;0.40;;
11646;SDS011;5880;52.342;9.662;2022-07-06T13:32:03;0.40;;;0.40;;
11646;SDS011;5880;52.342;9.662;2022-07-06T13:34:30;0.38;;;0.38;;
11646;SDS011;5880;52.342;9.662;2022-07-06T13:36:56;1.02;;;0.50;;
11646;SDS011;5880;52.342;9.662;2022-07-06T13:39:22;0.50;;;0.50;;
11646;SDS011;5880;52.342;9.662;2022-07-06T13:41:48;0.90;;;0.30;;
11646;SDS011;5880;52.342;9.662;2022-07-06T13:44:14;0.85;;;0.52;;
11646;SDS011;5880;52.342;9.662;2022-07-06T13:46:40;0.50;;;0.50;;
11646;SDS011;5880;52.342;9.662;2022-07-06T13:49:07;1.17;;;0.50;;
11646;SDS011;5880;52.342;9.662;2022-07-06T13:51:33;0.77;;;0.50;;
11646;SDS011;5880;52.342;9.662;2022-07-06T13:53:59;0.52;;;0.52;;
11646;SDS011;5880;52.342;9.662;2022-07-06T13:56:26;1.33;;;0.55;;
11646;SDS011;5880;52.342;9.662;2022-07-06T13:58:52;1.02;;;0.50;;
11646;SDS011;5880;52.342;9.662;2022-07-06T14:01:18;0.80;;;0.50;;
11646;SDS011;5880;52.342;9.662;2022-07-06T14:03:45;0.57;;;0.40;;
11646;SDS011;5880;52.342;9.662;2022-07-06T14:06:10;1.08;;;0.60;;
11646;SDS011;5880;52.342;9.662;2022-07-06T14:08:38;0.57;;;0.45;;
11646;SDS011;5880;52.342;9.662;2022-07-06T14:11:05;1.80;;;0.60;;
11646;SDS011;5880;52.342;9.662;2022-07-06T14:13:33;0.82;;;0.57;;
11646;SDS011;5880;52.342;9.662;2022-07-06T14:16:00;0.90;;;0.50;;
11646;SDS011;5880;52.342;9.662;2022-07-06T14:18:26;1.33;;;0.40;;
11646;SDS011;5880;52.342;9.662;2022-07-06T14:20:52;1.58;;;0.40;;
11646;SDS011;5880;52.342;9.662;2022-07-06T14:23:19;0.65;;;0.50;;
11646;SDS011;5880;52.342;9.662;2022-07-06T14:25:46;0.40;;;0.32;;
11646;SDS011;5880;52.342;9.662;2022-07-06T14:28:13;1.60;;;0.60;;
11646;SDS011;5880;52.342;9.662;2022-07-06T14:30:40;0.75;;;0.40;;
11646;SDS011;5880;52.342;9.662;2022-07-06T14:33:07;2.53;;;0.43;;
11646;SDS011;5880;52.342;9.662;2022-07-06T14:35:38;1.27;;;0.35;;
11646;SDS011;5880;52.342;9.662;2022-07-06T14:38:12;0.70;;;0.30;;
11646;SDS011;5880;52.342;9.662;2022-07-06T14:40:39;3.03;;;0.40;;
11646;SDS011;5880;52.342;9.662;2022-07-06T14:43:05;0.70;;;0.30;;
11646;SDS011;5880;52.342;9.662;2022-07-06T14:45:31;0.47;;;0.30;;
11646;SDS011;5880;52.342;9.662;2022-07-06T14:47:57;0.93;;;0.47;;
11646;SDS011;5880;52.342;9.662;2022-07-06T14:50:23;1.85;;;0.55;;
11646;SDS011;5880;52.342;9.662;2022-07-06T14:52:49;0.52;;;0.32;;
11646;SDS011;5880;52.342;9.662;2022-07-06T14:55:16;0.40;;;0.30;;
11646;SDS011;5880;52.342;9.662;2022-07-06T14:57:42;0.80;;;0.30;;
11646;SDS011;5880;52.342;9.662;2022-07-06T15:00:08;2.30;;;0.60;;
11646;SDS011;5880;52.342;9.662;2022-07-06T15:02:35;0.70;;;0.40;;
11646;SDS011;5880;52.342;9.662;2022-07-06T15:05:01;0.80;;;0.40;;
11646;SDS011;5880;52.342;9.662;2022-07-06T15:07:27;0.30;;;0.30;;
11646;SDS011;5880;52.342;9.662;2022-07-06T15:09:54;1.38;;;0.40;;
11646;SDS011;5880;52.342;9.662;2022-07-06T15:12:20;0.30;;;0.30;;
11646;SDS011;5880;52.342;9.662;2022-07-06T15:14:46;0.93;;;0.40;;
11646;SDS011;5880;52.342;9.662;2022-07-06T15:17:12;0.90;;;0.43;;
11646;SDS011;5880;52.342;9.662;2022-07-06T15:19:38;0.70;;;0.50;;
11646;SDS011;5880;52.342;9.662;2022-07-06T15:22:03;0.98;;;0.50;;
11646;SDS011;5880;52.342;9.662;2022-07-06T15:24:29;0.63;;;0.60;;
11646;SDS011;5880;52.342;9.662;2022-07-06T15:26:55;0.60;;;0.50;;
11646;SDS011;5880;52.342;9.662;2022-07-06T15:29:21;0.40;;;0.38;;
11646;SDS011;5880;52.342;9.662;2022-07-06T15:31:46;1.77;;;0.57;;
11646;SDS011;5880;52.342;9.662;2022-07-06T15:34:12;0.95;;;0.60;;